createdAt,value
2019-01-04T00:00:32.196Z,28.73
2019-01-04T00:03:04.845Z,28.87
2019-01-04T00:05:35.540Z,28.97
2019-01-04T00:08:09.183Z,26.03
2019-01-04T00:10:39.582Z,27.33
2019-01-04T00:13:11.891Z,27.57
2019-01-04T00:15:42.427Z,24.70
2019-01-04T00:18:14.637Z,25.17
2019-01-04T00:20:46.411Z,28.37
2019-01-04T00:23:17.590Z,27.13
2019-01-04T00:25:48.930Z,26.60
2019-01-04T00:28:23.978Z,26.63
2019-01-04T00:31:01.360Z,25.60
2019-01-04T00:51:17.569Z,23.03
2019-01-04T00:53:51.164Z,23.40
2019-01-04T00:56:57.861Z,24.00
2019-01-04T01:00:20.848Z,21.83
2019-01-04T01:03:28.061Z,22.33
2019-01-04T01:06:38.450Z,23.40
2019-01-04T01:09:46.010Z,23.73
2019-01-04T01:12:39.003Z,24.17
2019-01-04T01:15:55.091Z,25.00
2019-01-04T01:18:51.146Z,23.30
2019-01-04T01:22:03.457Z,25.07
2019-01-04T01:27:59.346Z,25.50
2019-01-04T01:31:16.207Z,25.60
2019-01-04T01:34:31.718Z,26.77
2019-01-04T01:37:40.703Z,25.10
2019-01-04T01:40:56.524Z,28.10
2019-01-04T01:44:03.244Z,23.87
2019-01-04T01:46:45.495Z,28.87
2019-01-04T01:50:11.264Z,27.47
2019-01-04T01:52:45.155Z,26.07
2019-01-04T01:55:22.023Z,26.00
2019-01-04T01:57:54.393Z,26.83
2019-01-04T02:00:24.817Z,27.90
2019-01-04T02:02:56.793Z,27.10
2019-01-04T02:05:27.383Z,27.63
2019-01-04T02:08:04.087Z,26.43
2019-01-04T02:10:36.203Z,24.53
2019-01-04T02:13:58.177Z,22.70
2019-01-04T02:16:29.024Z,21.80
2019-01-04T02:18:59.435Z,22.03
2019-01-04T02:21:29.738Z,20.37
2019-01-04T02:24:00.395Z,19.37
2019-01-04T02:27:32.017Z,20.87
2019-01-04T02:30:07.842Z,19.20
2019-01-04T02:32:42.309Z,20.23
2019-01-04T02:35:34.818Z,19.57
2019-01-04T03:19:50.139Z,16.40
2019-01-04T03:22:25.111Z,16.07
2019-01-04T03:27:36.539Z,17.70
2019-01-04T03:30:08.575Z,18.57
2019-01-04T03:32:42.406Z,18.33
2019-01-04T03:35:14.283Z,18.27
2019-01-04T03:37:46.309Z,19.53
2019-01-04T03:40:18.581Z,19.50
2019-01-04T03:42:59.537Z,19.27
2019-01-04T03:45:30.657Z,18.13
2019-01-04T03:48:03.374Z,17.90
2019-01-04T03:50:47.454Z,18.33
2019-01-04T03:53:39.457Z,18.17
2019-01-04T03:56:10.875Z,17.47
2019-01-04T03:59:03.203Z,18.40
2019-01-04T04:01:35.956Z,18.67
2019-01-04T04:04:06.452Z,17.70
2019-01-04T04:06:38.183Z,17.53
2019-01-04T04:09:09.788Z,17.73
2019-01-04T04:11:42.828Z,18.73
2019-01-04T04:14:19.087Z,17.30
2019-01-04T04:16:49.680Z,19.37
2019-01-04T04:19:20.794Z,18.67
2019-01-04T04:21:52.699Z,18.97
2019-01-04T04:24:22.976Z,18.70
2019-01-04T04:26:53.637Z,19.23
2019-01-04T04:29:24.186Z,16.73
2019-01-04T04:31:54.736Z,17.93
2019-01-04T04:34:26.367Z,17.80
2019-01-04T04:37:11.987Z,18.63
2019-01-04T04:39:42.528Z,18.53
2019-01-04T04:42:13.228Z,17.87
2019-01-04T04:45:22.687Z,18.77
2019-01-04T04:48:01.209Z,19.77
2019-01-04T04:51:18.182Z,18.47
2019-01-04T04:53:51.295Z,21.03
2019-01-04T04:56:27.320Z,21.07
2019-01-04T04:59:09.801Z,21.37
2019-01-04T05:01:33.392Z,18.27
2019-01-04T05:04:49.702Z,19.40
2019-01-04T05:07:26.087Z,19.73
2019-01-04T05:12:52.256Z,18.33
2019-01-04T05:15:25.037Z,17.73
2019-01-04T05:56:54.846Z,20.10
2019-01-04T06:00:07.221Z,20.83
2019-01-04T06:02:43.306Z,17.50
2019-01-04T06:05:19.087Z,19.00
2019-01-04T06:07:56.883Z,18.73
2019-01-04T06:10:51.368Z,17.50
2019-01-04T06:13:24.945Z,16.20
2019-01-04T06:16:07.874Z,17.17
2019-01-04T06:18:38.995Z,18.17
2019-01-04T06:21:20.234Z,17.13
2019-01-04T06:23:52.484Z,17.63
2019-01-04T06:30:20.032Z,16.03
2019-01-04T06:33:02.843Z,17.47
2019-01-04T06:35:37.714Z,17.43
2019-01-04T06:38:13.716Z,17.03
2019-01-04T06:41:06.484Z,15.77
2019-01-04T06:43:52.425Z,15.47
2019-01-04T06:46:31.803Z,16.33
2019-01-04T06:50:09.243Z,15.63
2019-01-04T06:52:23.525Z,16.13
2019-01-04T06:56:05.198Z,16.47
2019-01-04T06:59:25.494Z,15.27
2019-01-04T07:02:31.863Z,15.23
2019-01-04T07:05:06.693Z,15.50
2019-01-04T07:07:44.245Z,14.90
2019-01-04T07:10:17.955Z,15.37
2019-01-04T07:13:39.866Z,16.03
2019-01-04T07:16:17.965Z,16.43
2019-01-04T07:18:51.858Z,16.77
2019-01-04T07:21:39.515Z,17.50
2019-01-04T07:24:20.449Z,16.93
2019-01-04T07:27:01.258Z,17.87
2019-01-04T07:32:18.606Z,17.60
2019-01-04T07:34:56.009Z,17.20
2019-01-04T07:37:31.171Z,19.07
2019-01-04T07:40:57.618Z,18.43
2019-01-04T07:43:56.027Z,18.37
2019-01-04T07:46:41.316Z,18.80
2019-01-04T07:49:45.106Z,18.93
2019-01-04T07:52:36.546Z,23.23
2019-01-04T08:01:17.125Z,16.93
2019-01-04T08:03:51.462Z,16.27
2019-01-04T08:06:23.719Z,16.03
2019-01-04T08:08:56.604Z,16.13
2019-01-04T08:11:31.010Z,17.33
2019-01-04T08:14:02.999Z,17.90
2019-01-04T08:16:33.736Z,17.33
2019-01-04T08:19:05.366Z,17.63
2019-01-04T08:21:35.992Z,17.83
2019-01-04T08:24:18.705Z,17.70
2019-01-04T08:26:53.643Z,18.20
2019-01-04T08:29:36.680Z,17.50
2019-01-04T08:32:36.894Z,19.03
2019-01-04T08:35:19.911Z,17.47
2019-01-04T08:39:18.773Z,15.87
2019-01-04T08:41:27.832Z,17.03
2019-01-04T08:44:04.655Z,18.83
2019-01-04T08:46:45.722Z,17.17
2019-01-04T08:49:18.696Z,16.50
2019-01-04T08:51:53.600Z,16.37
2019-01-04T08:54:28.642Z,17.70
2019-01-04T08:57:00.305Z,17.13
2019-01-04T08:59:38.925Z,16.23
2019-01-04T09:02:19.880Z,15.30
2019-01-04T09:04:53.925Z,16.80
2019-01-04T09:07:27.957Z,16.83
2019-01-04T09:10:01.552Z,17.87
2019-01-04T09:12:33.785Z,16.60
2019-01-04T09:15:04.725Z,14.83
2019-01-04T09:17:39.206Z,15.90
2019-01-04T09:20:23.323Z,16.67
2019-01-04T09:22:55.209Z,16.93
2019-01-04T09:25:27.373Z,14.90
2019-01-04T09:27:58.901Z,16.13
2019-01-04T09:30:31.706Z,14.93
2019-01-04T09:33:05.242Z,14.47
2019-01-04T09:35:36.506Z,14.53
2019-01-04T09:38:16.952Z,14.13
2019-01-04T09:41:34.515Z,15.23
2019-01-04T09:44:18.055Z,15.17
2019-01-04T09:46:55.332Z,15.47
2019-01-04T09:59:26.366Z,13.60
2019-01-04T10:01:58.382Z,12.93
2019-01-04T10:04:33.939Z,13.77
2019-01-04T10:07:06.318Z,11.17
2019-01-04T10:09:50.552Z,11.53
2019-01-04T10:12:38.334Z,11.40
2019-01-04T10:22:18.075Z,12.03
2019-01-04T10:24:56.970Z,11.03
2019-01-04T10:27:33.017Z,10.83
2019-01-04T10:30:04.227Z,10.97
2019-01-04T10:32:36.664Z,10.53
2019-01-04T10:35:20.940Z,11.00
2019-01-04T10:37:45.071Z,10.60
2019-01-04T10:40:26.768Z,10.80
2019-01-04T10:42:49.381Z,9.33
2019-01-04T10:45:27.287Z,9.73
2019-01-04T10:47:58.341Z,10.10
2019-01-04T10:50:29.880Z,10.33
2019-01-04T10:53:09.180Z,9.57
2019-01-04T10:55:41.684Z,9.20
2019-01-04T10:58:32.690Z,9.43
2019-01-04T11:01:09.292Z,9.90
2019-01-04T11:04:04.857Z,9.40
2019-01-04T11:06:39.747Z,10.23
2019-01-04T11:09:19.022Z,9.33
2019-01-04T11:11:53.734Z,9.03
2019-01-04T11:14:30.049Z,8.77
2019-01-04T11:21:27.584Z,9.47
2019-01-04T11:24:11.700Z,9.77
2019-01-04T11:26:58.865Z,10.70
2019-01-04T11:30:40.283Z,11.40
2019-01-04T11:44:37.282Z,11.60
2019-01-04T11:48:00.854Z,9.33
2019-01-04T11:51:15.318Z,11.53
2019-01-04T11:53:53.046Z,10.73
2019-01-04T11:56:32.351Z,11.73
2019-01-04T11:59:07.146Z,11.83
2019-01-04T12:01:55.720Z,11.27
2019-01-04T12:07:11.485Z,10.07
2019-01-04T12:09:46.046Z,9.80
2019-01-04T12:12:20.224Z,10.00
2019-01-04T12:15:09.651Z,9.47
2019-01-04T12:17:51.175Z,10.77
2019-01-04T12:20:22.778Z,10.43
2019-01-04T12:22:57.015Z,10.67
2019-01-04T12:25:43.647Z,9.87
2019-01-04T12:43:05.731Z,11.77
2019-01-04T12:45:44.105Z,10.97
2019-01-04T12:48:20.005Z,11.73
2019-01-04T12:51:10.580Z,10.60
2019-01-04T12:54:01.296Z,11.23
2019-01-04T12:56:38.144Z,11.27
2019-01-04T12:59:33.919Z,10.17
2019-01-04T13:02:22.528Z,10.63
2019-01-04T13:05:26.676Z,9.00
2019-01-04T13:08:12.398Z,9.37
2019-01-04T13:11:12.298Z,10.43
2019-01-04T13:13:48.869Z,11.07
2019-01-04T13:16:42.390Z,10.57
2019-01-04T13:19:34.151Z,10.67
2019-01-04T13:22:05.524Z,10.20
2019-01-04T13:24:36.072Z,10.40
2019-01-04T13:27:08.250Z,11.10
2019-01-04T13:29:39.103Z,10.33
2019-01-04T13:32:12.120Z,9.50
2019-01-04T13:34:45.638Z,9.17
2019-01-04T13:37:18.470Z,8.63
2019-01-04T13:39:49.445Z,9.87
2019-01-04T13:42:25.117Z,8.63
2019-01-04T13:44:57.379Z,8.67
2019-01-04T13:47:32.207Z,9.20
2019-01-04T13:50:00.328Z,9.23
2019-01-04T13:52:31.090Z,9.43
2019-01-04T13:55:13.734Z,10.27
2019-01-04T13:57:49.159Z,8.83
2019-01-04T14:00:30.695Z,9.00
2019-01-04T14:02:56.707Z,8.70
2019-01-04T14:05:39.062Z,8.80
2019-01-04T14:08:12.067Z,8.77
2019-01-04T14:10:43.759Z,9.07
2019-01-04T14:13:14.653Z,9.93
2019-01-04T14:15:49.800Z,10.40
2019-01-04T14:18:21.877Z,9.70
2019-01-04T14:20:59.376Z,9.40
2019-01-04T14:23:55.513Z,9.73
2019-01-04T14:26:17.406Z,9.43
2019-01-04T14:28:49.270Z,9.50
2019-01-04T14:31:20.441Z,9.73
2019-01-04T14:33:59.741Z,9.63
2019-01-04T14:36:30.567Z,9.03
2019-01-04T14:39:15.653Z,8.53
2019-01-04T14:41:54.049Z,8.57
2019-01-04T14:44:24.415Z,8.57
2019-01-04T14:46:54.857Z,7.87
2019-01-04T14:49:35.945Z,8.13
2019-01-04T14:52:06.793Z,8.50
2019-01-04T14:54:39.104Z,8.13
2019-01-04T14:57:11.316Z,8.77
2019-01-04T14:59:42.928Z,8.80
2019-01-04T15:02:16.446Z,8.50
2019-01-04T15:04:46.550Z,8.53
2019-01-04T15:07:17.037Z,8.23
2019-01-04T15:09:49.122Z,8.93
2019-01-04T15:12:22.267Z,8.63
2019-01-04T15:14:52.565Z,9.20
2019-01-04T15:17:23.088Z,9.40
2019-01-04T15:19:56.299Z,8.83
2019-01-04T15:22:28.237Z,8.97
2019-01-04T15:24:58.555Z,7.83
2019-01-04T15:27:29.280Z,9.67
2019-01-04T15:30:00.925Z,8.30
2019-01-04T15:32:36.255Z,8.80
2019-01-04T15:35:08.590Z,8.93
2019-01-04T15:37:42.757Z,8.77
2019-01-04T15:40:15.902Z,8.77
2019-01-04T15:42:46.898Z,8.20
2019-01-04T15:45:20.939Z,8.80
2019-01-04T15:47:54.926Z,8.40
2019-01-04T15:50:28.736Z,8.07
2019-01-04T15:53:00.357Z,8.17
2019-01-04T15:55:33.562Z,9.30
2019-01-04T15:58:04.421Z,9.07
2019-01-04T16:00:35.345Z,9.37
2019-01-04T16:03:07.159Z,9.73
2019-01-04T16:05:41.133Z,9.63
2019-01-04T16:08:15.021Z,8.20
2019-01-04T16:10:47.339Z,9.70
2019-01-04T16:13:17.887Z,10.33
2019-01-04T16:15:49.159Z,10.80
2019-01-04T16:18:24.416Z,10.57
2019-01-04T16:20:53.763Z,10.60
2019-01-04T16:23:24.311Z,9.93
2019-01-04T16:25:54.763Z,9.63
2019-01-04T16:28:51.035Z,9.83
2019-01-04T16:31:22.267Z,9.70
2019-01-04T16:33:53.159Z,8.90
2019-01-04T16:36:25.815Z,9.40
2019-01-04T16:38:56.680Z,9.27
2019-01-04T16:41:30.092Z,8.73
2019-01-04T16:44:07.252Z,9.17
2019-01-04T16:46:38.886Z,9.40
2019-01-04T16:49:13.699Z,9.10
2019-01-04T16:51:52.968Z,9.87
2019-01-04T16:54:23.818Z,10.07
2019-01-04T16:59:51.939Z,9.33
2019-01-04T17:02:38.268Z,10.50
2019-01-04T17:05:15.331Z,9.43
2019-01-04T17:07:45.740Z,9.00
2019-01-04T17:10:16.036Z,10.50
2019-01-04T17:12:47.689Z,10.20
2019-01-04T17:15:18.069Z,9.50
2019-01-04T17:17:51.817Z,10.07
2019-01-04T17:20:22.070Z,9.70
2019-01-04T17:23:00.697Z,11.50
2019-01-04T17:25:31.426Z,9.90
2019-01-04T17:28:06.010Z,9.17
2019-01-04T17:30:55.764Z,10.20
2019-01-04T17:33:17.569Z,8.93
2019-01-04T17:35:55.061Z,10.33
2019-01-04T17:38:25.587Z,8.97
2019-01-04T17:40:56.232Z,10.27
2019-01-04T17:43:27.080Z,10.27
2019-01-04T17:46:02.771Z,10.97
2019-01-04T17:48:38.081Z,10.27
2019-01-04T17:51:20.708Z,9.10
2019-01-04T17:53:42.774Z,9.40
2019-01-04T17:56:14.842Z,8.47
2019-01-04T17:58:47.240Z,8.87
2019-01-04T18:01:29.806Z,9.73
2019-01-04T18:04:07.188Z,9.37
2019-01-04T18:06:42.946Z,8.20
2019-01-04T18:09:19.920Z,8.97
2019-01-04T18:11:54.283Z,9.33
2019-01-04T18:14:26.174Z,8.33
2019-01-04T18:20:14.040Z,8.53
2019-01-04T18:22:48.739Z,6.87
2019-01-04T18:25:19.550Z,7.33
2019-01-04T18:27:50.499Z,8.40
2019-01-04T18:30:21.339Z,7.60
2019-01-04T18:32:51.884Z,8.40
2019-01-04T18:35:24.658Z,8.47
2019-01-04T18:38:15.384Z,7.60
2019-01-04T18:40:41.705Z,7.47
2019-01-04T18:43:15.719Z,7.30
2019-01-04T18:45:51.325Z,8.20
2019-01-04T18:48:22.744Z,8.30
2019-01-04T18:50:58.334Z,7.83
2019-01-04T18:53:38.811Z,8.43
2019-01-04T18:56:04.692Z,8.47
2019-01-04T18:58:35.093Z,8.50
2019-01-04T19:01:29.411Z,8.40
2019-01-04T19:04:01.585Z,8.77
2019-01-04T19:06:32.443Z,8.80
2019-01-04T19:09:02.939Z,9.20
2019-01-04T19:11:34.746Z,9.50
2019-01-04T19:14:09.727Z,8.37
2019-01-04T19:16:43.760Z,9.77
2019-01-04T19:19:16.459Z,9.47
2019-01-04T19:21:49.518Z,9.47
2019-01-04T19:24:20.041Z,9.33
2019-01-04T19:26:50.528Z,9.33
2019-01-04T19:29:21.919Z,9.57
2019-01-04T19:31:53.277Z,9.43
2019-01-04T19:34:27.358Z,9.60
2019-01-04T19:36:57.790Z,10.03
2019-01-04T19:39:30.943Z,10.57
2019-01-04T19:42:02.186Z,10.17
2019-01-04T19:44:34.090Z,9.20
2019-01-04T19:47:04.589Z,10.73
2019-01-04T19:49:35.464Z,11.10
2019-01-04T19:52:06.130Z,10.50
2019-01-04T19:54:36.598Z,11.07
2019-01-04T19:57:07.842Z,10.70
2019-01-04T19:59:38.219Z,11.20
2019-01-04T20:02:08.603Z,11.67
2019-01-04T20:04:41.006Z,10.77
2019-01-04T20:08:18.909Z,11.80
2019-01-04T20:11:33.238Z,12.10
2019-01-04T20:15:15.015Z,11.60
2019-01-04T20:18:16.078Z,11.50
2019-01-04T20:21:05.362Z,11.33
2019-01-04T20:23:53.396Z,12.77
2019-01-04T20:26:49.214Z,12.60
2019-01-04T20:29:45.971Z,12.60
2019-01-04T20:32:38.028Z,12.37
2019-01-04T20:35:33.395Z,12.33
2019-01-04T20:38:22.564Z,13.20
2019-01-04T20:41:10.072Z,12.93
2019-01-04T20:44:17.017Z,12.83
2019-01-04T20:47:13.618Z,12.77
2019-01-04T20:50:04.681Z,12.20
2019-01-04T20:52:54.763Z,11.63
2019-01-04T20:55:50.071Z,14.40
2019-01-04T20:58:34.985Z,13.57
2019-01-04T21:01:23.062Z,13.23
2019-01-04T21:04:11.689Z,12.20
2019-01-04T21:07:02.489Z,12.17
2019-01-04T21:09:57.851Z,12.20
2019-01-04T21:12:45.633Z,12.30
2019-01-04T21:15:34.871Z,12.60
2019-01-04T21:18:24.213Z,12.77
2019-01-04T21:21:14.943Z,14.67
2019-01-04T21:24:04.487Z,13.57
2019-01-04T21:26:47.392Z,13.83
2019-01-04T21:29:42.829Z,12.60
2019-01-04T21:32:30.272Z,13.97
2019-01-04T21:35:19.200Z,12.87
2019-01-04T21:38:26.218Z,11.87
2019-01-04T21:41:23.348Z,13.37
2019-01-04T21:44:24.813Z,12.97
2019-01-04T21:47:20.116Z,13.23
2019-01-04T21:50:09.183Z,13.90
2019-01-04T21:52:56.737Z,12.83
2019-01-04T21:55:45.877Z,14.10
2019-01-04T21:58:51.787Z,13.57
2019-01-04T22:01:44.715Z,15.93
2019-01-04T22:04:40.333Z,14.30
2019-01-04T22:07:44.500Z,12.33
2019-01-04T22:10:43.006Z,12.70
2019-01-04T22:13:30.693Z,11.80
2019-01-04T22:16:18.574Z,12.83
2019-01-04T22:19:07.658Z,11.87
2019-01-04T22:22:14.857Z,12.23
2019-01-04T22:25:16.023Z,12.23
2019-01-04T22:28:23.577Z,11.23
2019-01-04T22:31:11.123Z,12.23
2019-01-04T22:34:00.869Z,12.17
2019-01-04T22:36:49.949Z,10.47
2019-01-04T22:39:38.744Z,12.07
2019-01-04T22:42:27.863Z,11.37
2019-01-04T22:45:13.347Z,10.97
2019-01-04T22:48:02.409Z,12.17
2019-01-04T22:51:01.103Z,11.93
2019-01-04T22:53:48.576Z,12.00
2019-01-04T22:56:51.170Z,11.60
2019-01-04T22:59:43.269Z,11.57
2019-01-04T23:02:50.866Z,11.60
2019-01-04T23:05:38.924Z,12.00
2019-01-04T23:08:40.386Z,11.77
2019-01-04T23:11:44.839Z,11.20
2019-01-04T23:14:44.061Z,11.77
2019-01-04T23:17:43.082Z,10.20
2019-01-04T23:20:33.711Z,10.83
2019-01-04T23:23:21.340Z,11.37
2019-01-04T23:26:09.325Z,11.50
2019-01-04T23:28:58.659Z,11.20
2019-01-04T23:32:06.027Z,10.43
2019-01-04T23:35:13.523Z,12.57
2019-01-04T23:38:08.728Z,11.50
2019-01-04T23:41:06.761Z,10.97
2019-01-04T23:43:57.173Z,11.40
2019-01-04T23:46:58.107Z,10.60
2019-01-04T23:49:50.548Z,10.80
2019-01-04T23:52:38.291Z,10.70
2019-01-04T23:55:22.690Z,10.53
2019-01-04T23:58:26.709Z,10.23
